< < Back
Terminal Aerodrome Forecast


Current Version              Previous Versions:   1  2  3  4  5  6  7  8  9  

Terminal Aerodrome Forecast

076
FTUS42 KJAX 211100 AAA
TAFJAX
TAF AMD
KJAX 211123Z 2111/2212 00000KT 5SM BR SCT250
      TEMPO 2111/2112 1SM BR SCT002
     FM211300 31006KT P6SM SCT250
     FM220000 VRB03KT P6SM SKC=



Latest METAR

143
SAUS80 KWBC 211700
MTRJAX
METAR KJAX 211656Z VRB04KT 10SM SCT030 SCT200 27/17 A2996 RMK AO2 SLP144
T02670167


USA.gov is the U.S. government's official web portal to all federal, state and local government web resources and services.